Time;durP1;ratioP1;P1;durP2;ratioP2;P2;SDS_P1;SDS_P2;PMS_P1;PMS_P2;Temp;Humidity;BMP_temperature;BMP_pressure;BME280_temperature;BME280_humidity;BME280_pressure;Samples;Min_cycle;Max_cycle;Signal;HPM_P1;HPM_P2
2022/12/24 00:01:08;;;;;;;36.37;5.47;;;;;;;-145.18;100.00;46724.84;5005925;28;20193;-72
2022/12/24 00:03:36;;;;;;;44.23;5.00;;;;;;;-145.18;100.00;46726.81;4992422;28;20370;-72
2022/12/24 00:06:06;;;;;;;50.13;5.93;;;;;;;-145.18;100.00;46728.75;4992437;28;20272;-72
2022/12/24 00:08:32;;;;;;;33.43;5.13;;;;;;;-145.18;100.00;46728.75;4992269;28;20351;-71
2022/12/24 00:10:58;;;;;;;46.83;6.50;;;;;;;-145.18;100.00;46726.81;4992277;28;20760;-71
2022/12/24 00:13:24;;;;;;;54.53;6.30;;;;;;;-145.18;100.00;46724.84;4984948;28;20302;-71
2022/12/24 00:15:49;;;;;;;44.80;5.73;;;;;;;-145.18;100.00;46722.91;5012009;28;20037;-71
2022/12/24 00:18:15;;;;;;;55.40;7.83;;;;;;;-145.18;100.00;46722.91;4994002;28;20037;-71
2022/12/24 00:20:40;;;;;;;71.37;9.13;;;;;;;-145.18;100.00;46732.66;4992606;28;20054;-72
2022/12/24 00:23:06;;;;;;;51.80;6.47;;;;;;;-145.18;100.00;46724.84;4974041;28;20069;-72
2022/12/24 00:25:32;;;;;;;54.43;6.37;;;;;;;-145.18;100.00;46726.81;5004114;28;20034;-72
2022/12/24 00:27:57;;;;;;;53.33;6.73;;;;;;;-145.18;100.00;46724.84;5011397;28;20395;-71
2022/12/24 00:30:22;;;;;;;60.40;7.57;;;;;;;-145.18;100.00;46722.91;5011137;28;20042;-71
2022/12/24 00:32:48;;;;;;;55.07;6.80;;;;;;;-145.18;100.00;46722.91;5011286;28;20502;-71
2022/12/24 00:35:13;;;;;;;52.37;7.43;;;;;;;-145.18;100.00;46722.91;4993917;28;20479;-71
2022/12/24 00:37:38;;;;;;;55.80;6.67;;;;;;;-145.18;100.00;46720.94;4996075;28;20471;-71
2022/12/24 00:40:05;;;;;;;50.87;7.10;;;;;;;-145.18;100.00;46724.84;4974464;28;20244;-71
2022/12/24 00:42:30;;;;;;;52.33;7.43;;;;;;;-145.18;100.00;46722.91;5003824;28;20049;-72
2022/12/24 00:44:55;;;;;;;51.93;6.63;;;;;;;-145.18;100.00;46724.84;5011063;28;20283;-71
2022/12/24 00:47:21;;;;;;;41.97;5.80;;;;;;;-145.18;100.00;46724.84;4998262;28;20073;-71
2022/12/24 00:49:46;;;;;;;48.60;7.27;;;;;;;-145.18;100.00;46722.91;4991660;28;20582;-71
2022/12/24 00:52:11;;;;;;;51.80;7.03;;;;;;;-145.18;100.00;46724.84;4990993;28;20423;-72
2022/12/24 00:54:37;;;;;;;51.73;7.67;;;;;;;-145.18;100.00;46726.81;4990966;28;20045;-71
2022/12/24 00:57:02;;;;;;;48.93;5.63;;;;;;;-145.18;100.00;46724.84;4991360;28;20169;-71
2022/12/24 00:59:27;;;;;;;56.13;6.83;;;;;;;-145.18;100.00;46724.84;5005356;28;20042;-72
2022/12/24 01:01:53;;;;;;;40.50;6.50;;;;;;;-145.18;100.00;46724.84;4977190;28;20038;-71
2022/12/24 01:07:02;;;;;;;43.33;5.33;;;;;;;-145.18;100.00;46724.84;4976309;28;20104;-71
2022/12/24 01:09:27;;;;;;;47.27;5.03;;;;;;;-145.18;100.00;46722.91;4973622;28;20284;-71
2022/12/24 01:11:53;;;;;;;46.27;5.43;;;;;;;-145.18;100.00;46726.81;5009858;28;20049;-71
2022/12/24 01:14:19;;;;;;;52.07;5.60;;;;;;;-145.18;100.00;46728.75;5010619;28;20108;-72
2022/12/24 01:16:45;;;;;;;44.20;5.93;;;;;;;-145.18;100.00;46724.84;5010046;28;20037;-72
2022/12/24 01:19:10;;;;;;;40.33;5.70;;;;;;;-145.18;100.00;46728.75;5010578;28;20283;-71
2022/12/24 01:21:35;;;;;;;36.23;4.60;;;;;;;-145.18;100.00;46724.84;5007180;28;20109;-72
2022/12/24 01:24:01;;;;;;;38.23;5.63;;;;;;;-145.18;100.00;46724.84;5010780;28;20418;-72
2022/12/24 01:26:26;;;;;;;32.60;4.80;;;;;;;-145.18;100.00;46722.91;5010324;28;20033;-72
2022/12/24 01:28:52;;;;;;;45.43;5.80;;;;;;;-145.18;100.00;46726.81;5010596;28;20528;-72
2022/12/24 01:31:18;;;;;;;42.27;5.03;;;;;;;-145.18;100.00;46722.91;5010516;28;20030;-71
2022/12/24 01:33:45;;;;;;;42.50;5.37;;;;;;;-145.18;100.00;46726.81;5007899;28;20026;-71
2022/12/24 01:36:12;;;;;;;38.27;5.63;;;;;;;-145.18;100.00;46726.81;4990840;28;20276;-72
2022/12/24 01:38:38;;;;;;;50.93;7.33;;;;;;;-145.18;100.00;46726.81;4990816;28;20395;-72
2022/12/24 01:43:47;;;;;;;45.83;5.83;;;;;;;-145.18;100.00;46728.75;4990616;28;20085;-72
2022/12/24 01:46:22;;;;;;;39.63;6.63;;;;;;;-145.18;100.00;46728.75;4991076;28;20304;-72
2022/12/24 01:49:03;;;;;;;43.47;5.47;;;;;;;-145.18;100.00;46726.81;4990705;28;20092;-72
2022/12/24 01:52:00;;;;;;;36.70;4.40;;;;;;;-145.18;100.00;46724.84;4990391;28;20278;-72
2022/12/24 01:54:45;;;;;;;40.97;6.30;;;;;;;-145.18;100.00;46724.84;4990693;28;20294;-72
2022/12/24 01:57:17;;;;;;;46.40;6.23;;;;;;;-145.18;100.00;46726.81;4990396;28;20300;-72
2022/12/24 01:59:46;;;;;;;35.70;4.77;;;;;;;-145.18;100.00;46728.75;5004178;28;20659;-72
2022/12/24 02:02:12;;;;;;;45.83;6.13;;;;;;;-145.18;100.00;46726.81;5009205;28;20366;-72
2022/12/24 02:05:03;;;;;;;42.50;4.73;;;;;;;-145.18;100.00;46732.66;5010429;28;20810;-72
2022/12/24 02:07:31;;;;;;;47.93;6.43;;;;;;;-145.18;100.00;46734.63;4995780;28;20307;-72
2022/12/24 02:10:00;;;;;;;40.37;5.40;;;;;;;-145.18;100.00;46726.81;4994684;28;20299;-72
2022/12/24 02:12:29;;;;;;;45.87;6.43;;;;;;;-145.18;100.00;46726.81;5011321;28;20278;-72
2022/12/24 02:14:54;;;;;;;32.77;5.57;;;;;;;-145.18;100.00;46728.75;5014111;28;20672;-72
2022/12/24 02:17:32;;;;;;;53.07;6.30;;;;;;;-145.18;100.00;46734.63;5013748;28;20273;-72
2022/12/24 02:20:25;;;;;;;46.73;5.77;;;;;;;-145.18;100.00;46732.66;5014116;28;20034;-72
2022/12/24 02:23:02;;;;;;;39.47;5.77;;;;;;;-145.18;100.00;46728.75;5002067;28;20482;-72
2022/12/24 02:25:50;;;;;;;55.63;6.47;;;;;;;-145.18;100.00;46720.94;5013904;28;21176;-72
2022/12/24 02:28:45;;;;;;;47.53;5.73;;;;;;;-145.18;100.00;46726.81;5012504;28;20039;-71
2022/12/24 02:31:19;;;;;;;57.73;9.03;;;;;;;-145.18;100.00;46724.84;5013685;28;20034;-71
2022/12/24 02:33:56;;;;;;;53.97;6.33;;;;;;;-145.18;100.00;46724.84;5009067;28;20030;-71
2022/12/24 02:36:26;;;;;;;42.53;6.63;;;;;;;-145.18;100.00;46724.84;5008948;28;20290;-72
2022/12/24 02:39:01;;;;;;;47.47;6.67;;;;;;;-145.18;100.00;46724.84;5013751;28;20306;-71
2022/12/24 02:44:27;;;;;;;56.57;7.30;;;;;;;-145.18;100.00;46724.84;5013556;28;20139;-71
2022/12/24 02:46:55;;;;;;;53.70;8.43;;;;;;;-145.18;100.00;46724.84;5011728;28;20479;-71
2022/12/24 02:49:21;;;;;;;47.90;6.30;;;;;;;-145.18;100.00;46720.94;5013075;28;20048;-71
2022/12/24 02:51:46;;;;;;;45.60;5.97;;;;;;;-145.18;100.00;46719.00;5013373;28;20545;-72
2022/12/24 02:54:13;;;;;;;51.40;7.07;;;;;;;-145.18;100.00;46720.94;5013252;28;20065;-72
2022/12/24 02:57:07;;;;;;;47.03;7.10;;;;;;;-145.18;100.00;46720.94;4995689;28;20025;-72
2022/12/24 02:59:44;;;;;;;45.40;6.87;;;;;;;-145.18;100.00;46717.03;4984482;28;20468;-71
2022/12/24 03:02:18;;;;;;;54.40;6.73;;;;;;;-145.18;100.00;46719.00;5288224;22;20050;-73
2022/12/24 03:04:58;;;;;;;45.90;6.70;;;;;;;-145.18;100.00;46722.91;5026345;28;20414;-73
2022/12/24 03:08:01;;;;;;;46.80;6.77;;;;;;;-145.18;100.00;46717.03;5024079;28;20030;-73
2022/12/24 03:10:35;;;;;;;59.53;7.43;;;;;;;-145.18;100.00;46722.91;5013214;28;20396;-73
2022/12/24 03:13:10;;;;;;;40.33;5.87;;;;;;;-145.18;100.00;46724.84;5023412;28;20271;-72
2022/12/24 03:15:37;;;;;;;54.88;8.10;;;;;;;-145.18;100.00;46719.00;5032589;28;20626;-73
2022/12/24 03:18:06;;;;;;;52.77;6.73;;;;;;;-145.18;100.00;46722.91;5013608;28;20047;-73
2022/12/24 03:20:39;;;;;;;48.27;7.00;;;;;;;-145.18;100.00;46722.91;5032839;28;20083;-72
2022/12/24 03:23:05;;;;;;;50.20;7.93;;;;;;;-145.18;100.00;46719.00;5029075;28;20065;-72
2022/12/24 03:25:32;;;;;;;44.50;7.20;;;;;;;-145.18;100.00;46722.91;5031810;28;20087;-72
2022/12/24 03:28:00;;;;;;;51.53;7.60;;;;;;;-145.18;100.00;46722.91;5032148;28;20044;-72
2022/12/24 03:30:25;;;;;;;47.07;7.00;;;;;;;-145.18;100.00;46724.84;5028422;28;20025;-73
2022/12/24 03:32:51;;;;;;;55.40;7.87;;;;;;;-145.18;100.00;46726.81;5021213;28;20033;-73
2022/12/24 03:35:16;;;;;;;48.67;7.10;;;;;;;-145.18;100.00;46719.00;5032169;28;20116;-72
2022/12/24 03:37:42;;;;;;;46.60;6.63;;;;;;;-145.18;100.00;46719.00;5032414;28;20037;-73
2022/12/24 03:40:08;;;;;;;46.67;6.10;;;;;;;-145.18;100.00;46722.91;5032145;28;20486;-73
2022/12/24 03:42:33;;;;;;;38.03;5.83;;;;;;;-145.18;100.00;46720.94;5025572;28;20038;-73
2022/12/24 03:44:58;;;;;;;51.80;8.53;;;;;;;-145.18;100.00;46719.00;5012307;28;20418;-73
2022/12/24 03:47:24;;;;;;;42.93;6.67;;;;;;;-145.18;100.00;46719.00;4994653;28;20046;-73
2022/12/24 03:49:49;;;;;;;54.40;6.63;;;;;;;-145.18;100.00;46722.91;5012358;28;20073;-73
2022/12/24 03:52:14;;;;;;;32.97;5.73;;;;;;;-145.18;100.00;46719.00;5015850;28;20037;-73
2022/12/24 03:54:40;;;;;;;46.33;7.23;;;;;;;-145.18;100.00;46720.94;5032127;28;20040;-73
2022/12/24 03:57:05;;;;;;;52.43;7.17;;;;;;;-145.18;100.00;46719.00;5031437;28;20030;-73
2022/12/24 03:59:31;;;;;;;56.60;7.17;;;;;;;-145.18;100.00;46719.00;5032146;28;20795;-73
2022/12/24 04:01:56;;;;;;;48.20;6.30;;;;;;;-145.18;100.00;46720.94;5021488;28;20037;-73
2022/12/24 04:04:21;;;;;;;48.87;6.60;;;;;;;-145.18;100.00;46720.94;4992575;28;20058;-73
2022/12/24 04:06:47;;;;;;;55.50;7.50;;;;;;;-145.18;100.00;46719.00;4992462;28;20141;-72
2022/12/24 04:09:12;;;;;;;50.97;7.40;;;;;;;-145.18;100.00;46720.94;4992019;28;20034;-72
2022/12/24 04:11:37;;;;;;;70.27;9.10;;;;;;;-145.18;100.00;46717.03;4992305;28;20566;-73
2022/12/24 04:14:03;;;;;;;54.30;7.50;;;;;;;-145.18;100.00;46719.00;5011329;28;20061;-73
2022/12/24 04:16:28;;;;;;;52.77;6.40;;;;;;;-145.18;100.00;46719.00;5011986;28;20034;-73
2022/12/24 04:18:53;;;;;;;56.17;8.03;;;;;;;-145.18;100.00;46720.94;5011368;28;20664;-73
2022/12/24 04:21:19;;;;;;;45.23;7.13;;;;;;;-145.18;100.00;46722.91;5000584;28;20096;-72
2022/12/24 04:23:44;;;;;;;49.47;6.57;;;;;;;-145.18;100.00;46717.03;4990876;28;20038;-72
2022/12/24 04:26:11;;;;;;;49.80;7.70;;;;;;;-145.18;100.00;46722.91;5011721;28;20037;-73
2022/12/24 04:28:37;;;;;;;45.93;6.30;;;;;;;-145.18;100.00;46717.03;5011415;28;20104;-73
2022/12/24 04:31:07;;;;;;;50.17;7.33;;;;;;;-145.18;100.00;46719.00;5011347;28;20034;-73
2022/12/24 04:33:33;;;;;;;57.77;8.93;;;;;;;-145.18;100.00;46724.84;4996224;28;20065;-73
2022/12/24 04:36:01;;;;;;;43.73;6.93;;;;;;;-145.18;100.00;46720.94;4991937;28;20034;-73
2022/12/24 04:38:27;;;;;;;48.03;6.90;;;;;;;-145.18;100.00;46719.00;4991905;28;20063;-73
2022/12/24 04:41:02;;;;;;;54.00;8.07;;;;;;;-145.18;100.00;46713.13;5001262;28;20156;-73
2022/12/24 04:43:28;;;;;;;46.75;6.72;;;;;;;-145.18;100.00;46719.00;4997093;28;20804;-73
2022/12/24 04:45:53;;;;;;;46.33;7.30;;;;;;;-145.18;100.00;46719.00;4991433;28;20046;-72
2022/12/24 04:48:18;;;;;;;47.87;7.80;;;;;;;-145.18;100.00;46720.94;4991815;28;20168;-73
2022/12/24 04:50:44;;;;;;;49.37;8.40;;;;;;;-145.18;100.00;46722.91;4991726;28;20128;-73
2022/12/24 04:53:09;;;;;;;50.03;6.80;;;;;;;-145.18;100.00;46720.94;5002295;28;20048;-72
2022/12/24 04:55:35;;;;;;;43.97;8.17;;;;;;;-145.18;100.00;46722.91;5011211;28;20044;-72
2022/12/24 04:58:00;;;;;;;52.00;7.80;;;;;;;-145.18;100.00;46722.91;4992891;28;20030;-72
2022/12/24 05:00:25;;;;;;;55.03;6.90;;;;;;;-145.18;100.00;46720.94;4991591;28;20034;-72
2022/12/24 05:02:51;;;;;;;53.63;7.30;;;;;;;-145.18;100.00;46719.00;4998589;28;20078;-73
2022/12/24 05:05:16;;;;;;;47.50;7.03;;;;;;;-145.18;100.00;46717.03;5011128;28;20038;-72
2022/12/24 05:07:42;;;;;;;53.17;7.23;;;;;;;-145.18;100.00;46722.91;4991172;28;20046;-72
2022/12/24 05:10:08;;;;;;;52.57;7.40;;;;;;;-145.18;100.00;46722.91;4993230;28;20074;-72
2022/12/24 05:12:33;;;;;;;45.23;6.30;;;;;;;-145.18;100.00;46724.84;5004862;28;20038;-72
2022/12/24 05:14:58;;;;;;;50.20;7.50;;;;;;;-145.18;100.00;46715.09;4991128;28;20037;-72
2022/12/24 05:17:24;;;;;;;59.00;8.53;;;;;;;-145.18;100.00;46719.00;4991171;28;20052;-73
2022/12/24 05:19:49;;;;;;;59.97;11.30;;;;;;;-145.18;100.00;46720.94;4991077;28;20030;-73
2022/12/24 05:27:42;;;;;;;54.90;8.30;;;;;;;-145.18;100.00;46715.09;5010939;28;20112;-73
2022/12/24 05:30:08;;;;;;;44.03;7.90;;;;;;;-145.18;100.00;46726.81;5010365;28;20783;-73
2022/12/24 05:32:34;;;;;;;47.27;8.43;;;;;;;-145.18;100.00;46720.94;4987475;28;20042;-73
2022/12/24 05:34:59;;;;;;;50.13;8.70;;;;;;;-145.18;100.00;46720.94;4990813;28;20038;-73
2022/12/24 05:37:24;;;;;;;53.80;9.57;;;;;;;-145.18;100.00;46720.94;4990991;28;20042;-73
2022/12/24 05:39:50;;;;;;;57.67;8.97;;;;;;;-145.18;100.00;46720.94;4990695;28;20521;-73
2022/12/24 05:42:15;;;;;;;45.77;7.33;;;;;;;-145.18;100.00;46719.00;4975598;28;20069;-73
2022/12/24 05:44:40;;;;;;;55.37;9.60;;;;;;;-145.18;100.00;46724.84;5005814;28;20041;-73
2022/12/24 05:47:06;;;;;;;44.80;7.13;;;;;;;-145.18;100.00;46722.91;5010361;28;20801;-73
2022/12/24 05:49:31;;;;;;;49.00;7.70;;;;;;;-145.18;100.00;46722.91;5010168;28;20113;-73
2022/12/24 05:51:56;;;;;;;50.77;7.63;;;;;;;-145.18;100.00;46722.91;5005942;28;20049;-73
2022/12/24 05:54:22;;;;;;;54.47;7.57;;;;;;;-145.18;100.00;46722.91;4997482;28;20026;-72
2022/12/24 05:56:47;;;;;;;55.37;7.47;;;;;;;-145.18;100.00;46722.91;4990445;28;20547;-72
2022/12/24 05:59:13;;;;;;;47.73;7.33;;;;;;;-145.18;100.00;46720.94;4998703;28;20082;-73
2022/12/24 06:01:38;;;;;;;58.40;10.50;;;;;;;-145.18;100.00;46720.94;5005918;28;20140;-73
2022/12/24 06:04:04;;;;;;;71.27;9.40;;;;;;;-145.18;100.00;46724.84;4992950;28;20137;-72
2022/12/24 06:06:29;;;;;;;49.40;6.83;;;;;;;-145.18;100.00;46720.94;4990767;28;20399;-72
2022/12/24 06:08:55;;;;;;;52.20;7.77;;;;;;;-145.18;100.00;46722.91;4990263;28;20061;-72
2022/12/24 06:11:23;;;;;;;52.97;7.13;;;;;;;-145.18;100.00;46722.91;4990928;28;20057;-72
2022/12/24 06:13:51;;;;;;;52.20;7.00;;;;;;;-145.18;100.00;46719.00;5004492;28;20030;-72
2022/12/24 06:16:18;;;;;;;64.93;8.40;;;;;;;-145.18;100.00;46722.91;5010493;28;20030;-73
2022/12/24 06:18:44;;;;;;;54.43;8.33;;;;;;;-145.18;100.00;46722.91;5010002;28;20026;-72
2022/12/24 06:21:11;;;;;;;57.47;7.90;;;;;;;-145.18;100.00;46724.84;4991107;28;20490;-72
2022/12/24 06:23:38;;;;;;;44.20;5.97;;;;;;;-145.18;100.00;46720.94;5002858;28;20041;-72
2022/12/24 06:26:05;;;;;;;45.80;7.37;;;;;;;-145.18;100.00;46724.84;5010045;28;20041;-72
2022/12/24 06:28:33;;;;;;;42.27;6.67;;;;;;;-145.18;100.00;46726.81;5009856;28;20038;-72
2022/12/24 06:31:00;;;;;;;48.70;8.00;;;;;;;-145.18;100.00;46722.91;5009769;28;20044;-72
2022/12/24 06:33:26;;;;;;;53.10;7.50;;;;;;;-145.18;100.00;46720.94;4995546;28;20145;-73
2022/12/24 06:35:51;;;;;;;49.90;7.53;;;;;;;-145.18;100.00;46719.00;4989728;28;20030;-73
2022/12/24 06:38:16;;;;;;;52.33;7.37;;;;;;;-145.18;100.00;46720.94;4979955;28;20146;-72
2022/12/24 06:40:43;;;;;;;43.17;5.40;;;;;;;-145.18;100.00;46726.81;5009983;28;20077;-72
2022/12/24 06:43:09;;;;;;;50.27;7.23;;;;;;;-145.18;100.00;46722.91;4991155;28;20030;-72
2022/12/24 06:45:35;;;;;;;43.13;6.57;;;;;;;-145.18;100.00;46722.91;5010195;28;20042;-72
2022/12/24 06:48:00;;;;;;;34.07;5.70;;;;;;;-145.18;100.00;46722.91;5008541;28;20034;-72
2022/12/24 06:50:26;;;;;;;46.63;6.00;;;;;;;-145.18;100.00;46724.84;4991201;28;20121;-72
2022/12/24 06:52:52;;;;;;;49.20;6.57;;;;;;;-145.18;100.00;46720.94;5001456;28;20030;-72
2022/12/24 06:55:17;;;;;;;47.97;5.67;;;;;;;-145.18;100.00;46728.75;4995680;28;20172;-72
2022/12/24 06:57:43;;;;;;;50.13;6.60;;;;;;;-145.18;100.00;46722.91;4996227;28;20105;-72
2022/12/24 07:00:10;;;;;;;60.00;6.57;;;;;;;-145.18;100.00;46720.94;5012964;28;20033;-72
2022/12/24 07:02:39;;;;;;;49.67;6.97;;;;;;;-145.18;100.00;46722.91;5005752;28;20050;-72
2022/12/24 07:05:05;;;;;;;45.93;7.10;;;;;;;-145.18;100.00;46724.84;4993334;28;20034;-72
2022/12/24 07:07:30;;;;;;;43.90;6.20;;;;;;;-145.18;100.00;46719.00;4993742;28;20092;-72
2022/12/24 07:09:56;;;;;;;50.73;7.43;;;;;;;-145.18;100.00;46724.84;4999843;28;20037;-72
2022/12/24 07:12:21;;;;;;;48.57;7.00;;;;;;;-145.18;100.00;46722.91;5009904;28;20038;-72
2022/12/24 07:14:47;;;;;;;48.27;6.10;;;;;;;-145.18;100.00;46724.84;5001695;28;20137;-72
2022/12/24 07:17:12;;;;;;;53.93;7.07;;;;;;;-145.18;100.00;46724.84;5012559;28;20069;-72
2022/12/24 07:19:37;;;;;;;53.70;6.63;;;;;;;-145.18;100.00;46722.91;5012606;28;20030;-73
2022/12/24 07:22:03;;;;;;;46.53;6.93;;;;;;;-145.18;100.00;46724.84;5011251;28;20115;-72
2022/12/24 07:24:28;;;;;;;53.43;6.47;;;;;;;-145.18;100.00;46720.94;5011916;28;20088;-72
2022/12/24 07:26:54;;;;;;;51.57;6.20;;;;;;;-145.18;100.00;46724.84;5011618;28;20022;-72
2022/12/24 07:29:19;;;;;;;49.10;7.73;;;;;;;-145.18;100.00;46722.91;5011942;28;20371;-72
2022/12/24 07:31:44;;;;;;;50.60;5.90;;;;;;;-145.18;100.00;46722.91;4995209;28;20038;-73
2022/12/24 07:34:10;;;;;;;49.00;6.90;;;;;;;-145.18;100.00;46720.94;4992370;28;20074;-72
2022/12/24 07:36:35;;;;;;;42.83;6.37;;;;;;;-145.18;100.00;46720.94;4992995;28;20077;-72
2022/12/24 07:39:01;;;;;;;51.00;5.97;;;;;;;-145.18;100.00;46722.91;4992504;28;20033;-73
2022/12/24 07:41:26;;;;;;;54.10;6.43;;;;;;;-145.18;100.00;46719.00;4993179;28;20022;-72
2022/12/24 07:43:51;;;;;;;58.80;8.77;;;;;;;-145.18;100.00;46719.00;5007567;28;20026;-72
2022/12/24 07:46:17;;;;;;;45.67;6.33;;;;;;;-145.18;100.00;46722.91;4994335;28;20092;-72
2022/12/24 07:48:42;;;;;;;53.67;9.27;;;;;;;-145.18;100.00;46722.91;5011567;28;20046;-72
2022/12/24 07:51:08;;;;;;;49.23;8.30;;;;;;;-145.18;100.00;46719.00;5010750;28;20084;-72
2022/12/24 07:53:33;;;;;;;47.13;7.10;;;;;;;-145.18;100.00;46720.94;5010720;28;20042;-72
2022/12/24 07:55:59;;;;;;;52.17;7.77;;;;;;;-145.18;100.00;46719.00;5011384;28;20026;-72
2022/12/24 07:58:24;;;;;;;49.23;6.17;;;;;;;-145.18;100.00;46724.84;5011429;28;20176;-72
2022/12/24 08:00:55;;;;;;;58.97;7.27;;;;;;;-145.18;100.00;46719.00;5011833;28;20053;-72
2022/12/24 08:03:21;;;;;;;47.80;7.53;;;;;;;-145.18;100.00;46720.94;5000548;28;20419;-72
2022/12/24 08:05:47;;;;;;;43.97;7.40;;;;;;;-145.18;100.00;46722.91;4994843;28;20050;-72
2022/12/24 08:08:13;;;;;;;46.93;9.17;;;;;;;-145.18;100.00;46720.94;5002584;28;20105;-72
2022/12/24 08:10:43;;;;;;;41.17;7.00;;;;;;;-145.18;100.00;46720.94;5001509;28;20038;-72
2022/12/24 08:13:08;;;;;;;54.63;7.37;;;;;;;-145.18;100.00;46717.03;4997499;28;20260;-72
2022/12/24 08:15:34;;;;;;;53.47;6.13;;;;;;;-145.18;100.00;46719.00;4992326;28;20519;-72
2022/12/24 08:17:59;;;;;;;52.23;8.27;;;;;;;-145.18;100.00;46726.81;4990165;28;20039;-72
2022/12/24 08:20:25;;;;;;;53.70;7.27;;;;;;;-145.18;100.00;46719.00;4991817;28;20050;-72
2022/12/24 08:22:51;;;;;;;40.27;5.90;;;;;;;-145.18;100.00;46722.91;4991722;28;20065;-72
2022/12/24 08:25:17;;;;;;;52.57;7.60;;;;;;;-145.18;100.00;46719.00;4991417;28;20026;-72
2022/12/24 08:27:42;;;;;;;53.47;6.53;;;;;;;-145.18;100.00;46720.94;5008683;28;20064;-72
2022/12/24 08:30:08;;;;;;;44.70;6.47;;;;;;;-145.18;100.00;46720.94;5011215;28;20048;-72
2022/12/24 08:32:34;;;;;;;50.47;7.93;;;;;;;-145.18;100.00;46717.03;5011820;28;20438;-72
2022/12/24 08:34:59;;;;;;;40.27;6.13;;;;;;;-145.18;100.00;46724.84;5011400;28;20037;-72
2022/12/24 08:37:24;;;;;;;47.50;7.13;;;;;;;-145.18;100.00;46719.00;4997584;28;20423;-72
2022/12/24 08:39:50;;;;;;;38.43;6.17;;;;;;;-145.18;100.00;46722.91;4991939;28;20066;-72
2022/12/24 08:42:15;;;;;;;41.90;6.60;;;;;;;-145.18;100.00;46722.91;4991555;28;20038;-72
2022/12/24 08:44:41;;;;;;;49.40;6.50;;;;;;;-145.18;100.00;46720.94;4991893;28;20042;-72
2022/12/24 08:47:06;;;;;;;56.67;7.87;;;;;;;-145.18;100.00;46719.00;4991640;28;20030;-72
2022/12/24 08:49:31;;;;;;;41.23;6.40;;;;;;;-145.18;100.00;46717.03;4992548;28;20042;-72
2022/12/24 08:51:57;;;;;;;51.03;6.33;;;;;;;-145.18;100.00;46720.94;4991361;28;20117;-72
2022/12/24 08:54:24;;;;;;;49.03;7.83;;;;;;;-145.18;100.00;46717.03;4991632;28;20045;-72
2022/12/24 08:56:49;;;;;;;48.37;6.77;;;;;;;-145.18;100.00;46717.03;4991808;28;20073;-72
2022/12/24 08:59:14;;;;;;;44.10;6.93;;;;;;;-145.18;100.00;46720.94;4991231;28;20495;-72
2022/12/24 09:01:40;;;;;;;45.70;5.90;;;;;;;-145.18;100.00;46713.13;5003583;28;20530;-72
2022/12/24 09:04:05;;;;;;;60.40;17.00;;;;;;;-145.18;100.00;46719.00;5010551;28;20057;-72
2022/12/24 09:06:32;;;;;;;52.67;9.23;;;;;;;-145.18;100.00;46719.00;5011130;28;20065;-72
2022/12/24 09:08:57;;;;;;;43.33;6.57;;;;;;;-145.18;100.00;46720.94;4995170;28;20117;-72
2022/12/24 09:11:23;;;;;;;47.87;6.13;;;;;;;-145.18;100.00;46717.03;4991408;28;20117;-72
2022/12/24 09:13:48;;;;;;;37.20;5.37;;;;;;;-145.18;100.00;46719.00;5002242;28;20069;-72
2022/12/24 09:16:14;;;;;;;59.50;7.87;;;;;;;-145.18;100.00;46717.03;5005649;28;20120;-72
2022/12/24 09:18:40;;;;;;;44.43;7.83;;;;;;;-145.18;100.00;46713.13;4991098;28;20045;-72
2022/12/24 09:21:13;;;;;;;71.23;16.70;;;;;;;-145.18;100.00;46715.09;4991209;28;20069;-72
2022/12/24 09:23:39;;;;;;;54.63;8.90;;;;;;;-145.18;100.00;46715.09;4990800;28;20416;-72
2022/12/24 09:26:15;;;;;;;45.33;7.20;;;;;;;-145.18;100.00;46713.13;5002293;28;20049;-72
2022/12/24 09:28:40;;;;;;;45.03;6.70;;;;;;;-145.18;100.00;46711.19;5010549;28;20088;-72
2022/12/24 09:31:06;;;;;;;51.70;7.20;;;;;;;-145.18;100.00;46717.03;4996399;28;20046;-72
2022/12/24 09:33:35;;;;;;;37.93;6.90;;;;;;;-145.18;100.00;46713.13;4990558;28;20045;-72
2022/12/24 09:36:01;;;;;;;40.67;6.80;;;;;;;-145.18;100.00;46715.09;4991084;28;20483;-73
2022/12/24 09:38:27;;;;;;;45.87;7.57;;;;;;;-145.18;100.00;46720.94;5002658;28;20037;-72
2022/12/24 09:40:54;;;;;;;48.03;7.80;;;;;;;-145.18;100.00;46717.03;5010765;28;20026;-72
2022/12/24 09:43:23;;;;;;;44.80;8.63;;;;;;;-145.18;100.00;46720.94;5010567;28;20080;-72
2022/12/24 09:46:26;;;;;;;37.60;7.67;;;;;;;-145.18;100.00;46713.13;5010725;28;20109;-72
2022/12/24 09:48:56;;;;;;;53.30;7.27;;;;;;;-145.18;100.00;46719.00;4978667;28;20046;-72
2022/12/24 09:51:42;;;;;;;40.20;7.00;;;;;;;-145.18;100.00;46715.09;4991166;28;20115;-72
2022/12/24 09:54:20;;;;;;;55.33;7.03;;;;;;;-145.18;100.00;46711.19;4990514;28;20057;-72
2022/12/24 09:56:47;;;;;;;62.67;8.80;;;;;;;-145.18;100.00;46711.19;4990728;28;20069;-72
2022/12/24 09:59:34;;;;;;;41.80;7.27;;;;;;;-145.18;100.00;46707.28;4990611;28;20049;-72
2022/12/24 10:01:59;;;;;;;40.10;6.70;;;;;;;-145.18;100.00;46713.13;5003366;28;20092;-72
2022/12/24 10:04:29;;;;;;;45.80;8.50;;;;;;;-145.18;100.00;46705.31;5009574;28;20050;-72
2022/12/24 10:07:16;;;;;;;44.93;7.73;;;;;;;-145.18;100.00;46709.22;4999919;28;20567;-72
2022/12/24 10:10:00;;;;;;;45.30;6.50;;;;;;;-145.18;100.00;46709.22;5000047;28;20577;-72
2022/12/24 10:12:37;;;;;;;55.80;8.13;;;;;;;-145.18;100.00;46715.09;5008537;28;20762;-72
2022/12/24 10:15:21;;;;;;;47.03;6.57;;;;;;;-145.18;100.00;46709.22;4990474;28;20022;-72
2022/12/24 10:17:56;;;;;;;52.60;7.27;;;;;;;-145.18;100.00;46715.09;4990758;28;20030;-72
2022/12/24 10:20:24;;;;;;;40.93;7.43;;;;;;;-145.18;100.00;46711.19;4990609;28;20026;-72
2022/12/24 10:23:04;;;;;;;46.70;12.10;;;;;;;-145.18;100.00;46711.19;4990749;28;20026;-72
2022/12/24 10:26:03;;;;;;;50.40;8.50;;;;;;;-145.18;100.00;46715.09;5000755;28;20113;-72
2022/12/24 10:28:42;;;;;;;43.10;7.27;;;;;;;-145.18;100.00;46713.13;4988451;28;20045;-72
2022/12/24 10:31:09;;;;;;;40.37;7.13;;;;;;;-145.18;100.00;46713.13;4994129;28;20038;-72
2022/12/24 10:33:48;;;;;;;50.57;6.80;;;;;;;-145.18;100.00;46720.94;4994162;28;20180;-72
2022/12/24 10:36:22;;;;;;;34.33;5.80;;;;;;;-145.18;100.00;46719.00;4976367;28;20550;-72
2022/12/24 10:38:47;;;;;;;40.80;7.40;;;;;;;-145.18;100.00;46719.00;5012026;28;20133;-72
2022/12/24 10:41:14;;;;;;;44.50;8.00;;;;;;;-145.18;100.00;46722.91;5013644;28;20141;-72
2022/12/24 10:43:42;;;;;;;38.57;7.57;;;;;;;-145.18;100.00;46717.03;5013575;28;20034;-72
2022/12/24 10:46:21;;;;;;;39.43;6.87;;;;;;;-145.18;100.00;46722.91;4995802;28;20126;-72
2022/12/24 10:49:03;;;;;;;40.27;6.20;;;;;;;-145.18;100.00;46719.00;4995963;28;20026;-71
2022/12/24 10:51:51;;;;;;;46.07;6.80;;;;;;;-145.18;100.00;46722.91;5013699;28;20040;-72
2022/12/24 10:54:21;;;;;;;39.57;6.60;;;;;;;-145.18;100.00;46724.84;5013259;28;20018;-72
2022/12/24 10:56:51;;;;;;;41.87;6.00;;;;;;;-145.18;100.00;46722.91;5013057;28;20040;-72
2022/12/24 10:59:38;;;;;;;40.20;6.20;;;;;;;-145.18;100.00;46719.00;5013345;28;20033;-73
2022/12/24 11:02:28;;;;;;;43.07;7.80;;;;;;;-145.18;100.00;46720.94;5002366;28;20101;-72
2022/12/24 11:04:53;;;;;;;45.23;6.73;;;;;;;-145.18;100.00;46720.94;4995888;28;20054;-72
2022/12/24 11:07:21;;;;;;;40.77;6.13;;;;;;;-145.18;100.00;46719.00;4992515;28;20043;-71
2022/12/24 11:09:53;;;;;;;33.20;5.77;;;;;;;-145.18;100.00;46715.09;4993275;28;20037;-72
2022/12/24 11:12:23;;;;;;;29.33;5.37;;;;;;;-145.18;100.00;46719.00;4992763;28;20034;-72
2022/12/24 11:14:59;;;;;;;41.23;6.70;;;;;;;-145.18;100.00;46715.09;5003620;28;20491;-72
2022/12/24 11:17:24;;;;;;;;;;;;;;;-145.18;100.00;46717.03;5012660;28;20340;-72
2022/12/24 11:19:50;;;;;;;42.43;9.30;;;;;;;-145.18;100.00;46717.03;5012440;28;19967;-72
2022/12/24 11:22:17;;;;;;;42.53;7.53;;;;;;;-145.18;100.00;46715.09;5011902;28;20080;-72